Terminal Aerodrome Forecast
Issued by NWS

Home | Current Version | Previous Version | Text Only | Print | Product List | Glossary On
Versions: 1 2 3 4 5 6 7 8 9 10 11 12 13 14 15 16 17 18
000
FTAK31 PAJN 011139
TAFAKT
TAF
PAKT 011139Z 0112/0212 16005KT P6SM -SHRA SCT020 BKN030 OVC050
      TEMPO 0112/0115 14008G18KT 3SM SHRA BR FEW010 BKN025 OVC040
     FM011600 VRB05KT P6SM VCSH FEW005 BKN060 BKN080
     FM012000 34010KT P6SM SCT060 BKN080
      AMD LTD TO CLD VIS AND WIND 0112/0115=

USA.gov is the U.S. government's official web portal to all federal, state and local government web resources and services.